Time;durP1;ratioP1;P1;durP2;ratioP2;P2;SDS_P1;SDS_P2;PMS_P1;PMS_P2;Temp;Humidity;BMP_temperature;BMP_pressure;BME280_temperature;BME280_humidity;BME280_pressure;Samples;Min_cycle;Max_cycle;Signal;HPM_P1;HPM_P2
2023/06/08 00:04:40;;;;;;;12.23;11.18;;;;;;;17.71;100.00;100082.31;10461212;28;20422;-69
2023/06/08 00:09:44;;;;;;;11.85;11.10;;;;;;;17.69;100.00;100070.91;10460412;28;20045;-70
2023/06/08 00:14:46;;;;;;;11.60;10.88;;;;;;;17.33;100.00;100072.16;10459617;28;20041;-69
2023/06/08 00:19:47;;;;;;;13.43;12.63;;;;;;;17.21;100.00;100067.56;10459672;28;20053;-69
2023/06/08 00:24:49;;;;;;;13.43;12.38;;;;;;;17.24;100.00;100067.38;10457534;28;20049;-69
2023/06/08 00:29:51;;;;;;;11.10;10.45;;;;;;;17.28;100.00;100060.94;10458799;28;20107;-70
2023/06/08 00:34:54;;;;;;;14.35;13.65;;;;;;;17.27;100.00;100059.25;10457621;28;20037;-69
2023/06/08 00:39:57;;;;;;;12.68;11.93;;;;;;;17.38;100.00;100053.28;10456948;28;20049;-69
2023/06/08 00:44:59;;;;;;;10.95;10.35;;;;;;;17.37;100.00;100046.28;10456557;28;20071;-69
2023/06/08 00:50:02;;;;;;;14.30;13.40;;;;;;;17.52;100.00;100044.47;10456544;28;20037;-69
2023/06/08 00:55:06;;;;;;;13.20;12.40;;;;;;;17.21;100.00;100048.97;10454989;28;20049;-69
2023/06/08 01:00:11;;;;;;;12.75;11.95;;;;;;;17.47;100.00;100036.78;10456631;28;20047;-70
2023/06/08 01:05:16;;;;;;;13.70;12.70;;;;;;;17.42;100.00;100033.56;10455064;28;20040;-70
2023/06/08 01:10:58;;;;;;;12.82;12.02;;;;;;;17.18;100.00;100027.91;10456014;28;20136;-70
2023/06/08 01:16:03;;;;;;;13.18;12.40;;;;;;;17.40;100.00;100015.06;10447734;28;20057;-70
2023/06/08 01:21:30;;;;;;;14.18;13.38;;;;;;;17.20;100.00;100012.72;10463841;28;20049;-70
2023/06/08 01:26:33;;;;;;;13.65;12.80;;;;;;;17.26;100.00;99998.22;10469024;28;20064;-70
2023/06/08 01:31:34;;;;;;;11.73;11.13;;;;;;;17.19;100.00;99994.25;10469226;28;20045;-70
2023/06/08 01:36:51;;;;;;;14.63;13.32;;;;;;;16.99;100.00;100008.69;10468356;28;20060;-70
2023/06/08 01:41:56;;;;;;;15.60;14.70;;;;;;;16.89;100.00;99998.59;10467798;28;20037;-70
2023/06/08 01:47:01;;;;;;;16.27;15.17;;;;;;;16.77;100.00;99991.34;10469368;28;20579;-69
2023/06/08 01:52:03;;;;;;;14.40;13.60;;;;;;;16.87;100.00;99997.00;10468887;28;20037;-70
2023/06/08 01:57:06;;;;;;;14.10;13.20;;;;;;;16.89;100.00;99979.16;10469090;28;20044;-70
2023/06/08 02:02:07;;;;;;;12.90;12.10;;;;;;;16.90;100.00;99979.06;10467569;28;20090;-70
2023/06/08 02:07:10;;;;;;;13.63;12.73;;;;;;;17.05;100.00;99981.78;10468770;28;20036;-70
2023/06/08 02:12:15;;;;;;;13.43;12.52;;;;;;;17.32;100.00;99976.63;10468690;28;20082;-69
2023/06/08 02:17:26;;;;;;;13.85;12.88;;;;;;;16.96;100.00;99977.03;10483976;28;20049;-70
2023/06/08 02:22:29;;;;;;;11.10;10.48;;;;;;;16.86;100.00;99976.69;10468672;28;20041;-70
2023/06/08 02:27:35;;;;;;;13.95;12.90;;;;;;;16.95;100.00;99970.81;10468155;28;20047;-70
2023/06/08 02:32:38;;;;;;;;;;;;;;;16.84;100.00;99974.13;10463649;28;20044;-70
2023/06/08 02:37:40;;;;;;;13.07;12.23;;;;;;;16.83;100.00;99971.56;10460244;28;19928;-70
2023/06/08 02:42:41;;;;;;;15.52;14.57;;;;;;;16.71;100.00;99980.22;10461111;28;20044;-70
2023/06/08 02:47:47;;;;;;;13.30;12.48;;;;;;;16.70;100.00;99979.34;10460034;28;20056;-70
2023/06/08 02:52:49;;;;;;;12.40;11.70;;;;;;;16.71;100.00;99986.38;10476555;28;20049;-70
2023/06/08 02:57:52;;;;;;;11.98;11.15;;;;;;;16.82;100.00;99991.06;10460978;28;20040;-70
2023/06/08 03:03:00;;;;;;;;;;;;;;;16.83;100.00;99980.38;10476636;28;20049;-70
2023/06/08 03:08:04;;;;;;;14.10;13.10;;;;;;;17.21;100.00;99985.22;10459855;28;19921;-70
2023/06/08 03:13:06;;;;;;;14.27;13.18;;;;;;;17.01;100.00;99991.72;10460620;28;20037;-70
2023/06/08 03:18:09;;;;;;;15.43;14.43;;;;;;;17.10;100.00;99993.84;10458949;28;20140;-70
2023/06/08 03:23:12;;;;;;;15.00;14.00;;;;;;;16.79;100.00;99999.25;10476214;28;20045;-70
2023/06/08 03:28:16;;;;;;;14.45;13.65;;;;;;;16.67;100.00;100002.56;10458686;28;20128;-70
2023/06/08 03:33:20;;;;;;;14.98;13.88;;;;;;;16.79;100.00;100002.75;10458381;28;20148;-70
2023/06/08 03:38:27;;;;;;;14.25;13.35;;;;;;;16.94;100.00;99997.47;10458334;28;20095;-70
2023/06/08 03:43:35;;;;;;;14.52;13.35;;;;;;;16.90;100.00;100000.31;10458717;28;20037;-70
2023/06/08 03:48:37;;;;;;;14.82;13.93;;;;;;;16.76;100.00;99996.75;10458184;28;20048;-68
2023/06/08 03:53:39;;;;;;;12.13;11.43;;;;;;;16.75;100.00;99992.38;10457615;28;20095;-69
2023/06/08 03:58:42;;;;;;;15.60;14.65;;;;;;;16.90;100.00;99991.47;10458740;28;20087;-69
2023/06/08 04:03:44;;;;;;;14.13;13.07;;;;;;;17.08;100.00;99992.19;10458745;28;20041;-69
2023/06/08 04:08:46;;;;;;;12.95;12.15;;;;;;;17.10;100.00;99985.88;10458397;28;20411;-69
2023/06/08 04:13:49;;;;;;;12.75;11.95;;;;;;;17.00;100.00;99986.47;10473318;28;20498;-69
2023/06/08 04:18:53;;;;;;;11.65;10.73;;;;;;;17.02;100.00;99987.25;10456956;28;20057;-69
2023/06/08 04:23:57;;;;;;;14.82;13.75;;;;;;;17.01;100.00;99991.72;10472705;28;20041;-69
2023/06/08 04:29:03;;;;;;;12.33;11.53;;;;;;;17.06;100.00;99988.78;10456118;28;20045;-69
2023/06/08 04:34:08;;;;;;;12.80;12.10;;;;;;;17.08;100.00;100000.16;10474292;28;20068;-69
2023/06/08 04:39:10;;;;;;;14.65;13.70;;;;;;;17.24;100.00;99998.31;10458709;28;20553;-68
2023/06/08 04:44:18;;;;;;;18.80;17.65;;;;;;;17.03;100.00;99995.13;10455273;28;20048;-68
2023/06/08 04:49:21;;;;;;;14.50;13.48;;;;;;;17.23;100.00;99987.81;10455505;28;20049;-68
2023/06/08 04:54:23;;;;;;;13.80;12.80;;;;;;;17.10;100.00;99985.88;10471753;28;20052;-68
2023/06/08 04:59:26;;;;;;;15.63;14.38;;;;;;;17.00;100.00;99987.38;10455099;28;20465;-68
2023/06/08 05:04:27;;;;;;;15.15;14.15;;;;;;;16.90;100.00;99995.00;10454769;28;20045;-68
2023/06/08 05:09:29;;;;;;;16.27;15.00;;;;;;;17.17;100.00;99980.19;10455162;28;20136;-67
2023/06/08 05:14:31;;;;;;;20.05;18.60;;;;;;;17.19;100.00;99995.09;10457908;28;20097;-66
2023/06/08 05:19:33;;;;;;;18.92;17.50;;;;;;;17.33;100.00;100002.22;10456315;28;20499;-67
2023/06/08 05:24:35;;;;;;;18.60;17.55;;;;;;;17.08;100.00;99998.38;10456166;28;20469;-68
2023/06/08 05:29:36;;;;;;;27.13;21.27;;;;;;;16.96;100.00;99974.38;10455956;28;20509;-69
2023/06/08 05:34:38;;;;;;;22.98;21.45;;;;;;;16.80;100.00;99947.84;10456404;28;20056;-69
2023/06/08 05:39:40;;;;;;;27.63;25.83;;;;;;;16.47;100.00;99948.84;10455858;28;20405;-69
2023/06/08 05:44:42;;;;;;;25.20;23.80;;;;;;;16.83;100.00;99985.69;10456460;28;20449;-69
2023/06/08 05:49:43;;;;;;;25.13;23.38;;;;;;;16.93;100.00;99985.16;10456357;28;20146;-69
2023/06/08 05:54:46;;;;;;;26.70;24.58;;;;;;;16.88;100.00;99990.72;10455451;28;20103;-69
2023/06/08 05:59:48;;;;;;;22.25;20.90;;;;;;;16.99;100.00;99987.44;10455850;28;20128;-69
2023/06/08 06:04:50;;;;;;;27.33;25.52;;;;;;;17.04;100.00;99986.22;10456475;28;20053;-70
2023/06/08 06:09:52;;;;;;;21.73;20.63;;;;;;;17.45;100.00;99992.66;10463215;28;20095;-71
2023/06/08 06:14:55;;;;;;;23.77;22.17;;;;;;;17.58;100.00;100009.56;10461908;28;20041;-71
2023/06/08 06:19:57;;;;;;;24.23;22.30;;;;;;;17.87;100.00;100002.47;10462519;28;20064;-71
2023/06/08 06:24:58;;;;;;;20.40;18.90;;;;;;;18.03;100.00;100011.22;10462495;28;20037;-71
2023/06/08 06:30:01;;;;;;;20.02;18.52;;;;;;;18.20;100.00;100017.28;10461910;28;20049;-71
2023/06/08 06:35:03;;;;;;;18.20;17.08;;;;;;;18.27;100.00;100021.25;10477527;28;20056;-69
2023/06/08 06:40:08;;;;;;;21.63;20.00;;;;;;;18.27;100.00;100019.44;10463919;28;20406;-71
2023/06/08 06:45:11;;;;;;;22.47;21.07;;;;;;;18.11;100.00;100016.91;10462269;28;20091;-72
2023/06/08 06:50:13;;;;;;;17.35;16.25;;;;;;;18.82;100.00;100021.22;10461675;28;20045;-70
2023/06/08 06:55:14;;;;;;;18.73;17.52;;;;;;;19.00;100.00;100020.97;10460807;28;20061;-70
2023/06/08 07:00:16;;;;;;;15.20;14.15;;;;;;;19.34;96.99;100014.19;10461771;28;20056;-71
2023/06/08 07:05:19;;;;;;;17.67;16.58;;;;;;;19.05;100.00;100024.16;10460925;28;20515;-71
2023/06/08 07:10:20;;;;;;;16.83;15.82;;;;;;;19.08;100.00;100021.28;10461160;28;20055;-71
2023/06/08 07:15:27;;;;;;;16.67;15.68;;;;;;;19.81;100.00;100018.91;10461116;28;20037;-71
2023/06/08 07:20:29;;;;;;;17.13;15.70;;;;;;;20.09;97.29;100017.81;10460151;28;20124;-71
2023/06/08 07:25:31;;;;;;;15.23;14.32;;;;;;;21.12;92.68;100016.50;10461049;28;20390;-71
2023/06/08 07:30:53;;;;;;;15.85;14.85;;;;;;;20.95;90.78;100019.56;10461169;28;20553;-71
2023/06/08 07:35:55;;;;;;;14.00;13.13;;;;;;;21.21;88.07;100011.41;10460271;28;20095;-72
2023/06/08 07:40:56;;;;;;;14.60;13.35;;;;;;;21.60;84.08;100019.06;10460054;28;20049;-70
2023/06/08 07:45:58;;;;;;;12.48;11.68;;;;;;;21.98;82.19;100023.22;10461226;28;20390;-70
2023/06/08 07:51:00;;;;;;;13.15;12.35;;;;;;;21.96;77.78;100022.50;10460019;28;20126;-70
2023/06/08 07:56:03;;;;;;;11.10;10.50;;;;;;;21.83;76.29;100019.94;10460041;28;20049;-70
2023/06/08 08:01:05;;;;;;;14.88;13.65;;;;;;;21.74;81.62;100020.66;10460334;28;20063;-70
2023/06/08 08:06:07;;;;;;;11.18;10.45;;;;;;;22.11;71.35;100017.75;10459457;28;20044;-69
2023/06/08 08:11:09;;;;;;;10.52;9.73;;;;;;;22.38;73.87;100026.25;10459024;28;20065;-69
2023/06/08 08:16:11;;;;;;;12.60;11.65;;;;;;;22.64;67.03;100016.09;10458103;28;20045;-69
2023/06/08 08:21:12;;;;;;;11.45;10.75;;;;;;;23.26;68.92;100019.03;10459506;28;20444;-70
2023/06/08 08:26:14;;;;;;;11.43;10.73;;;;;;;23.44;64.31;100016.63;10457184;28;20048;-69
2023/06/08 08:31:16;;;;;;;11.55;10.75;;;;;;;22.75;65.78;100027.75;10456783;28;20154;-69
2023/06/08 08:36:18;;;;;;;11.02;10.20;;;;;;;22.82;66.76;100027.13;10457834;28;20036;-70
2023/06/08 08:41:21;;;;;;;11.07;10.18;;;;;;;23.78;63.10;100022.66;10458315;28;20086;-69
2023/06/08 08:46:25;;;;;;;8.85;8.15;;;;;;;24.03;57.63;100022.19;10457879;28;20107;-70
2023/06/08 08:51:28;;;;;;;9.23;8.55;;;;;;;24.53;56.17;100018.72;10458456;28;20064;-69
2023/06/08 08:56:35;;;;;;;10.20;9.25;;;;;;;24.29;56.55;100022.56;10466083;28;20737;-69
2023/06/08 09:01:40;;;;;;;10.20;9.30;;;;;;;24.79;55.10;100008.25;10479665;28;20048;-70
2023/06/08 09:06:48;;;;;;;10.98;10.27;;;;;;;23.79;55.44;100009.09;10455089;28;20482;-70
2023/06/08 09:12:01;;;;;;;9.57;8.80;;;;;;;24.60;55.71;100003.72;10456116;28;20037;-70
2023/06/08 09:17:07;;;;;;;10.10;9.27;;;;;;;25.19;54.12;100008.16;10460167;28;20045;-70
2023/06/08 09:28:43;;;;;;;8.82;8.05;;;;;;;25.77;49.98;100007.22;10472697;28;20068;-69
2023/06/08 09:33:48;;;;;;;8.77;7.97;;;;;;;25.97;51.83;100000.75;10464713;28;20044;-70
2023/06/08 09:38:55;;;;;;;8.10;7.50;;;;;;;26.53;49.67;99997.06;10495268;28;20072;-70
2023/06/08 09:43:59;;;;;;;7.97;7.40;;;;;;;27.12;48.62;99997.47;10494260;28;20458;-70
2023/06/08 09:49:05;;;;;;;7.40;6.93;;;;;;;26.67;48.30;99993.00;10461680;28;20101;-69
2023/06/08 09:54:09;;;;;;;7.63;6.93;;;;;;;27.42;45.56;99988.09;10462044;28;20124;-70
2023/06/08 09:59:14;;;;;;;8.82;8.02;;;;;;;27.47;46.17;99996.56;10463453;28;20102;-70
2023/06/08 10:04:24;;;;;;;;;;;;;;;28.22;44.72;99977.06;10462269;28;20478;-70
2023/06/08 10:09:29;;;;;;;7.53;6.93;;;;;;;28.37;43.03;99978.97;10463770;28;19921;-70
2023/06/08 10:14:35;;;;;;;8.18;7.38;;;;;;;27.97;46.33;99979.66;10462884;28;20037;-70
2023/06/08 10:19:38;;;;;;;10.43;9.50;;;;;;;28.05;44.71;99987.78;10462554;28;20056;-70
2023/06/08 10:24:41;;;;;;;8.75;8.05;;;;;;;27.42;46.49;99975.44;10463394;28;20406;-70
2023/06/08 10:29:58;;;;;;;9.00;8.50;;;;;;;27.31;44.53;99975.69;10462941;28;20049;-70
2023/06/08 10:35:05;;;;;;;9.65;8.85;;;;;;;26.49;47.97;99968.72;10405405;23;20052;-69
2023/06/08 10:40:11;;;;;;;9.13;8.43;;;;;;;26.71;48.62;99958.50;10385508;28;20117;-71
2023/06/08 10:45:13;;;;;;;7.30;6.80;;;;;;;27.87;41.96;99957.31;10384479;28;20056;-71
2023/06/08 10:50:17;;;;;;;8.20;7.50;;;;;;;28.51;41.43;99949.59;10415642;28;20115;-71
2023/06/08 10:55:21;;;;;;;6.93;6.30;;;;;;;28.72;43.31;99944.56;10424536;28;20045;-70
2023/06/08 11:00:28;;;;;;;6.93;6.32;;;;;;;28.67;40.68;99934.25;10425028;28;20322;-70
2023/06/08 11:05:38;;;;;;;8.27;7.45;;;;;;;27.50;44.86;99930.63;10426199;28;20125;-70
2023/06/08 11:10:40;;;;;;;6.65;6.15;;;;;;;27.88;41.82;99913.94;10426167;28;20474;-70
2023/06/08 11:15:47;;;;;;;5.13;4.72;;;;;;;28.18;42.04;99908.97;10426788;28;20038;-70
2023/06/08 11:20:50;;;;;;;5.47;5.07;;;;;;;28.66;41.00;99902.81;10412759;28;20033;-70
2023/06/08 11:25:52;;;;;;;12.18;6.97;;;;;;;28.36;42.23;99898.06;10393495;28;20403;-70
2023/06/08 11:30:54;;;;;;;7.78;7.07;;;;;;;27.82;43.79;99903.78;10418331;28;20053;-70
2023/06/08 11:35:55;;;;;;;7.32;6.72;;;;;;;27.87;43.72;99890.63;10418225;28;20038;-70
2023/06/08 11:40:58;;;;;;;6.68;6.10;;;;;;;28.88;43.20;99878.81;10386010;28;20095;-70
2023/06/08 11:46:00;;;;;;;6.80;6.30;;;;;;;28.32;41.45;99869.63;10385760;28;20030;-69
2023/06/08 11:51:02;;;;;;;8.85;6.18;;;;;;;28.27;40.89;99869.28;10395092;28;20068;-70
2023/06/08 11:56:04;;;;;;;6.70;6.25;;;;;;;28.36;43.23;99857.50;10392554;28;20046;-70
2023/06/08 12:01:08;;;;;;;6.90;6.25;;;;;;;28.15;42.32;99864.19;10394370;28;20103;-69
2023/06/08 12:06:12;;;;;;;8.07;7.38;;;;;;;27.91;44.73;99864.16;10394214;28;20065;-69
2023/06/08 12:11:14;;;;;;;8.05;7.43;;;;;;;27.62;45.45;99869.91;10384030;28;20104;-69
2023/06/08 12:16:16;;;;;;;7.40;6.70;;;;;;;27.01;46.04;99870.91;10384177;28;20038;-69
2023/06/08 12:21:19;;;;;;;8.60;7.90;;;;;;;26.65;53.27;99865.56;10363984;28;20092;-70
2023/06/08 12:26:21;;;;;;;10.52;9.50;;;;;;;25.94;58.23;99873.59;10379606;28;20080;-69
2023/06/08 12:31:23;;;;;;;10.30;8.93;;;;;;;23.96;67.20;99876.06;10382118;28;20100;-67
2023/06/08 12:36:25;;;;;;;13.63;7.05;;;;;;;22.20;72.62;99867.09;10383197;28;20037;-68
2023/06/08 12:41:26;;;;;;;9.93;7.45;;;;;;;21.17;80.64;99858.44;10385593;28;20045;-68
2023/06/08 12:46:29;;;;;;;10.27;9.13;;;;;;;20.90;95.99;99843.59;10385172;28;20037;-68
2023/06/08 12:51:31;;;;;;;10.63;9.63;;;;;;;20.75;100.00;99871.47;10385021;28;20042;-68
2023/06/08 12:56:33;;;;;;;12.40;11.20;;;;;;;20.49;98.32;99873.44;10382238;28;20065;-68
2023/06/08 13:01:34;;;;;;;14.38;12.85;;;;;;;20.21;100.00;99866.63;10383037;28;20045;-69
2023/06/08 13:06:36;;;;;;;15.82;14.52;;;;;;;20.36;100.00;99869.97;10381399;28;20061;-68
2023/06/08 13:11:39;;;;;;;10.60;9.73;;;;;;;20.30;98.04;99878.44;10380261;28;20121;-68
2023/06/08 13:16:42;;;;;;;9.55;8.95;;;;;;;20.09;99.34;99899.53;10380667;28;20057;-69
2023/06/08 13:21:44;;;;;;;8.93;8.32;;;;;;;19.85;99.69;99912.88;10381276;28;20440;-69
2023/06/08 13:26:48;;;;;;;13.70;11.93;;;;;;;19.76;91.92;99926.88;10379485;28;20484;-69
2023/06/08 13:31:51;;;;;;;10.82;10.02;;;;;;;19.56;100.00;99938.91;10380403;28;20040;-69
2023/06/08 13:36:53;;;;;;;7.80;7.38;;;;;;;19.71;100.00;99931.69;10379045;28;20041;-69
2023/06/08 13:41:55;;;;;;;7.70;7.20;;;;;;;19.85;100.00;99935.06;10378119;28;20060;-69
2023/06/08 13:46:59;;;;;;;9.30;8.60;;;;;;;20.08;100.00;99933.38;10377652;28;20045;-70
2023/06/08 13:52:01;;;;;;;10.00;9.05;;;;;;;20.39;97.26;99936.47;10380892;28;20103;-70
2023/06/08 13:57:03;;;;;;;8.38;7.57;;;;;;;20.80;100.00;99944.09;10378617;28;20046;-70
2023/06/08 14:02:05;;;;;;;7.63;7.10;;;;;;;21.08;100.00;99945.53;10378799;28;20046;-69
2023/06/08 14:07:07;;;;;;;6.32;5.75;;;;;;;21.47;90.93;99948.78;10378265;28;20049;-69
2023/06/08 14:12:10;;;;;;;6.57;5.75;;;;;;;21.48;90.21;99929.09;10378452;28;20049;-69
2023/06/08 14:17:12;;;;;;;6.97;6.30;;;;;;;21.80;83.04;99921.16;10377617;28;20046;-70
2023/06/08 14:22:15;;;;;;;6.15;5.45;;;;;;;21.92;76.71;99914.00;10378795;28;20104;-70
2023/06/08 14:27:16;;;;;;;5.85;5.35;;;;;;;22.02;76.18;99901.56;10380845;28;20052;-69
2023/06/08 14:32:18;;;;;;;5.85;5.45;;;;;;;22.05;86.83;99889.75;10384107;28;20104;-70
2023/06/08 14:37:20;;;;;;;5.63;5.13;;;;;;;22.72;80.81;99899.41;10383250;28;20050;-71
2023/06/08 14:42:22;;;;;;;5.10;4.55;;;;;;;22.99;80.12;99894.41;10385199;28;20458;-70
2023/06/08 14:47:24;;;;;;;6.28;4.97;;;;;;;22.77;74.06;99887.31;10384305;28;20046;-69
2023/06/08 14:52:26;;;;;;;4.50;4.10;;;;;;;22.41;77.51;99881.38;10384688;28;20049;-71
2023/06/08 14:57:27;;;;;;;5.95;4.78;;;;;;;22.40;76.62;99870.78;10382222;28;20041;-71
2023/06/08 15:02:29;;;;;;;4.88;4.43;;;;;;;22.60;70.11;99861.94;10384625;28;20049;-70
2023/06/08 15:07:31;;;;;;;4.45;4.05;;;;;;;22.60;70.79;99853.91;10387045;28;20109;-70
2023/06/08 15:12:37;;;;;;;3.78;3.42;;;;;;;22.70;74.22;99845.06;10385119;28;20065;-70
2023/06/08 15:17:39;;;;;;;4.30;4.00;;;;;;;22.90;73.10;99826.34;10386601;28;20100;-69
2023/06/08 15:22:41;;;;;;;4.13;3.83;;;;;;;23.40;69.44;99831.78;10385914;28;20045;-69
2023/06/08 15:27:43;;;;;;;4.60;4.20;;;;;;;23.06;69.81;99823.16;10383314;28;20076;-70
2023/06/08 15:32:45;;;;;;;4.07;3.67;;;;;;;22.78;71.99;99813.97;10381723;28;20088;-70
2023/06/08 15:37:47;;;;;;;4.72;4.00;;;;;;;23.47;66.06;99810.66;10380844;28;20117;-71
2023/06/08 15:42:49;;;;;;;4.72;4.32;;;;;;;23.26;69.12;99796.47;10381417;28;20042;-70
2023/06/08 15:47:51;;;;;;;4.10;3.80;;;;;;;22.81;69.59;99794.09;10381785;28;20045;-71
2023/06/08 15:52:53;;;;;;;4.50;4.10;;;;;;;22.85;68.54;99792.88;10382165;28;20112;-71
2023/06/08 15:57:55;;;;;;;3.92;3.53;;;;;;;22.91;67.66;99792.34;10380590;28;20110;-71
2023/06/08 16:02:57;;;;;;;3.95;3.53;;;;;;;23.11;62.67;99783.44;10379580;28;20069;-70
2023/06/08 16:07:59;;;;;;;4.10;3.70;;;;;;;23.17;63.80;99785.56;10379959;28;20058;-69
2023/06/08 16:13:00;;;;;;;3.47;2.88;;;;;;;23.32;62.64;99786.03;10379735;28;20112;-69
2023/06/08 16:18:02;;;;;;;3.85;3.50;;;;;;;23.66;62.63;99797.31;10381288;28;20053;-71
2023/06/08 16:23:04;;;;;;;4.15;3.75;;;;;;;23.56;59.68;99809.81;10381299;28;20140;-71
2023/06/08 16:28:06;;;;;;;4.10;3.67;;;;;;;23.33;61.61;99803.84;10381694;28;20049;-71
2023/06/08 16:33:08;;;;;;;4.38;3.38;;;;;;;23.29;64.65;99802.41;10405137;23;20049;-72
2023/06/08 16:38:10;;;;;;;3.72;3.53;;;;;;;23.11;64.04;99796.00;10414796;28;20133;-71
2023/06/08 16:43:12;;;;;;;4.47;4.18;;;;;;;22.37;65.72;99786.22;10415508;28;20049;-71
2023/06/08 16:48:14;;;;;;;4.40;4.10;;;;;;;22.49;68.92;99786.13;10416123;28;20037;-71
2023/06/08 16:53:16;;;;;;;7.22;4.90;;;;;;;22.15;69.43;99780.97;10416364;28;20041;-73
2023/06/08 16:58:18;;;;;;;4.05;3.75;;;;;;;22.15;70.23;99786.31;10414962;28;20073;-72
2023/06/08 17:03:19;;;;;;;5.25;4.43;;;;;;;22.05;69.69;99780.88;10414018;28;20046;-72
2023/06/08 17:08:21;;;;;;;10.65;4.85;;;;;;;22.25;69.34;99786.41;10415070;28;20074;-72
2023/06/08 17:13:23;;;;;;;5.25;4.75;;;;;;;22.08;70.39;99791.28;10415013;28;20068;-72
2023/06/08 17:18:25;;;;;;;4.40;3.88;;;;;;;21.99;72.58;99783.19;10415324;28;20041;-72
2023/06/08 17:23:28;;;;;;;4.53;4.22;;;;;;;22.22;71.12;99784.81;10414789;28;20510;-71
2023/06/08 17:28:29;;;;;;;5.20;4.80;;;;;;;22.17;74.04;99782.53;10414938;28;20090;-71
2023/06/08 17:33:31;;;;;;;6.35;5.80;;;;;;;21.79;79.18;99787.53;10414481;28;20038;-72
2023/06/08 17:38:33;;;;;;;6.10;5.70;;;;;;;21.46;83.04;99794.63;10414368;28;20041;-71
2023/06/08 17:43:47;;;;;;;5.82;5.32;;;;;;;21.32;84.57;99795.75;10415102;28;20045;-72
2023/06/08 17:48:49;;;;;;;5.65;5.20;;;;;;;21.10;86.88;99807.25;10414354;28;20499;-72
2023/06/08 17:53:51;;;;;;;6.00;5.50;;;;;;;20.90;88.69;99790.16;10412776;28;20136;-72
2023/06/08 17:58:53;;;;;;;5.50;5.10;;;;;;;20.98;88.48;99788.66;10414088;28;20042;-71
2023/06/08 18:03:55;;;;;;;4.95;4.57;;;;;;;21.01;90.52;99780.44;10419525;28;20045;-72
2023/06/08 18:08:58;;;;;;;4.78;4.38;;;;;;;21.00;90.00;99776.91;10422085;28;20216;-72
2023/06/08 18:14:00;;;;;;;6.13;5.63;;;;;;;20.88;89.46;99772.53;10421946;28;20124;-72
2023/06/08 18:19:02;;;;;;;5.53;5.07;;;;;;;20.91;89.66;99769.63;10420180;28;20116;-72
2023/06/08 18:24:03;;;;;;;6.43;5.90;;;;;;;21.03;90.48;99774.00;10421092;28;20091;-72
2023/06/08 18:29:05;;;;;;;6.13;5.72;;;;;;;20.95;90.93;99780.91;10421038;28;20458;-72
2023/06/08 18:34:07;;;;;;;6.50;6.00;;;;;;;20.91;90.71;99782.97;10420845;28;20124;-72
2023/06/08 18:39:09;;;;;;;5.63;5.13;;;;;;;20.53;92.84;99781.47;10421638;28;20049;-72
2023/06/08 18:44:11;;;;;;;5.45;5.05;;;;;;;20.76;89.27;99778.81;10420463;28;20041;-72
2023/06/08 18:49:19;;;;;;;4.97;4.68;;;;;;;20.38;92.03;99780.78;10420197;28;20046;-72
2023/06/08 18:54:20;;;;;;;5.50;5.10;;;;;;;20.05;94.91;99781.50;10420911;28;20043;-72
2023/06/08 18:59:22;;;;;;;5.47;5.05;;;;;;;20.10;93.85;99790.06;10418693;28;20069;-72
2023/06/08 19:04:24;;;;;;;6.68;5.40;;;;;;;20.13;94.48;99791.63;10418766;28;20041;-72
2023/06/08 19:09:26;;;;;;;6.32;5.82;;;;;;;19.87;97.37;99783.75;10420128;28;20136;-72
2023/06/08 19:14:27;;;;;;;6.85;6.28;;;;;;;19.44;100.00;99793.19;10401223;28;20447;-72
2023/06/08 19:19:29;;;;;;;6.60;6.07;;;;;;;19.20;100.00;99788.63;10419738;28;20053;-73
2023/06/08 19:24:31;;;;;;;9.60;6.68;;;;;;;19.10;100.00;99798.25;10419633;28;20107;-72
2023/06/08 19:29:33;;;;;;;6.03;5.63;;;;;;;19.06;100.00;99797.59;10419149;28;20045;-73
2023/06/08 19:34:36;;;;;;;6.15;5.65;;;;;;;19.04;100.00;99802.19;10418794;28;20125;-72
2023/06/08 19:39:37;;;;;;;6.50;5.97;;;;;;;19.01;100.00;99804.22;10417411;28;20125;-72
2023/06/08 19:44:40;;;;;;;7.20;6.38;;;;;;;18.88;100.00;99812.22;10418084;28;20041;-72
2023/06/08 19:49:41;;;;;;;7.45;6.85;;;;;;;18.74;100.00;99818.50;10419219;28;20049;-72
2023/06/08 19:54:43;;;;;;;7.03;6.53;;;;;;;18.59;100.00;99839.03;10416495;28;20507;-72
2023/06/08 19:59:45;;;;;;;7.70;7.10;;;;;;;19.04;99.31;99825.31;10417341;28;20049;-71
2023/06/08 20:04:46;;;;;;;7.70;7.10;;;;;;;18.56;100.00;99833.91;10416888;28;20047;-71
2023/06/08 20:09:48;;;;;;;7.63;7.03;;;;;;;18.35;100.00;99822.88;10418137;28;20045;-71
2023/06/08 20:14:50;;;;;;;6.07;5.68;;;;;;;18.45;100.00;99831.09;10416912;28;20120;-72
2023/06/08 20:19:52;;;;;;;7.80;7.10;;;;;;;18.55;100.00;99828.66;10416208;28;20053;-71
2023/06/08 20:24:54;;;;;;;6.45;6.05;;;;;;;18.39;100.00;99829.72;10415348;28;20124;-72
2023/06/08 20:29:56;;;;;;;7.25;6.65;;;;;;;18.11;100.00;99829.84;10415880;28;20453;-72
2023/06/08 20:34:58;;;;;;;7.80;7.30;;;;;;;17.94;100.00;99832.78;10416384;28;20037;-72
2023/06/08 20:40:00;;;;;;;7.00;6.40;;;;;;;17.91;100.00;99855.09;10416477;28;20072;-71
2023/06/08 20:45:03;;;;;;;7.00;6.50;;;;;;;17.98;100.00;99858.22;10416628;28;20083;-72
2023/06/08 20:50:05;;;;;;;7.63;7.13;;;;;;;18.04;100.00;99863.13;10415734;28;20491;-71
2023/06/08 20:55:08;;;;;;;8.20;7.70;;;;;;;18.04;100.00;99863.97;10416095;28;20042;-71
2023/06/08 21:00:10;;;;;;;8.55;7.95;;;;;;;18.50;100.00;99847.59;10415312;28;20056;-71
2023/06/08 21:05:14;;;;;;;8.25;7.47;;;;;;;18.32;100.00;99859.47;10415021;28;20060;-71
2023/06/08 21:10:16;;;;;;;6.95;6.43;;;;;;;18.23;100.00;99850.31;10413923;28;20132;-72
2023/06/08 21:15:18;;;;;;;8.75;8.05;;;;;;;17.76;100.00;99846.31;10415009;28;20065;-72
2023/06/08 21:20:19;;;;;;;7.85;7.25;;;;;;;17.64;100.00;99837.25;10414973;28;20045;-72
2023/06/08 21:25:21;;;;;;;8.30;7.70;;;;;;;17.68;100.00;99842.41;10414647;28;20046;-71
2023/06/08 21:30:23;;;;;;;7.90;7.30;;;;;;;17.91;100.00;99849.75;10414949;28;20052;-71
2023/06/08 21:35:27;;;;;;;7.82;7.20;;;;;;;17.64;100.00;99847.06;10414986;28;20467;-71
2023/06/08 21:40:29;;;;;;;9.02;8.32;;;;;;;17.40;100.00;99846.81;10423524;28;20052;-71
2023/06/08 21:45:31;;;;;;;8.57;8.00;;;;;;;17.39;100.00;99845.94;10421485;28;20041;-71
2023/06/08 21:50:33;;;;;;;9.45;8.85;;;;;;;17.34;100.00;99850.69;10422005;28;20474;-71
2023/06/08 21:55:34;;;;;;;8.95;8.07;;;;;;;17.49;100.00;99853.34;10421377;28;20458;-70
2023/06/08 22:00:37;;;;;;;8.70;8.00;;;;;;;17.32;100.00;99855.25;10421108;28;20056;-71
2023/06/08 22:05:39;;;;;;;9.43;8.68;;;;;;;17.11;100.00;99861.91;10423280;28;20120;-70
2023/06/08 22:10:40;;;;;;;10.30;9.40;;;;;;;16.94;100.00;99868.22;10422581;28;20045;-70
2023/06/08 22:15:43;;;;;;;10.10;9.25;;;;;;;16.95;100.00;99858.47;10421768;28;20462;-71
2023/06/08 22:20:45;;;;;;;9.65;8.88;;;;;;;17.15;100.00;99853.63;10422161;28;20046;-71
2023/06/08 22:25:47;;;;;;;9.38;8.52;;;;;;;17.58;100.00;99866.06;10420784;28;20443;-71
2023/06/08 22:30:49;;;;;;;8.75;8.07;;;;;;;17.12;100.00;99861.78;10421521;28;20406;-71
2023/06/08 22:35:52;;;;;;;8.57;8.07;;;;;;;16.95;100.00;99861.13;10438257;22;20049;-70
2023/06/08 22:40:54;;;;;;;8.13;7.53;;;;;;;16.83;100.00;99857.41;10424128;28;20128;-70
2023/06/08 22:45:56;;;;;;;9.80;9.20;;;;;;;16.98;100.00;99858.28;10422681;28;20406;-70
2023/06/08 22:50:59;;;;;;;9.77;8.88;;;;;;;16.99;100.00;99849.34;10420673;28;20514;-70
2023/06/08 22:56:00;;;;;;;10.75;9.70;;;;;;;16.89;100.00;99843.75;10422824;28;20129;-71
2023/06/08 23:01:02;;;;;;;10.70;9.80;;;;;;;16.82;100.00;99842.41;10424316;28;20474;-71
2023/06/08 23:06:04;;;;;;;10.70;9.73;;;;;;;16.61;100.00;99842.75;10424087;28;20521;-70
2023/06/08 23:11:06;;;;;;;13.05;9.55;;;;;;;16.50;100.00;99834.56;10424499;28;20129;-70
2023/06/08 23:16:08;;;;;;;10.75;9.93;;;;;;;16.56;100.00;99830.72;10423563;28;20076;-70